sensor_id;sensor_type;location;lat;lon;timestamp;P1;durP1;ratioP1;P2;durP2;ratioP2
45650;SDS011;31365;48.858;8.530;2023-07-31T00:02:25;4.22;;;1.95;;
45650;SDS011;31365;48.858;8.530;2023-07-31T00:04:55;3.83;;;1.63;;
45650;SDS011;31365;48.858;8.530;2023-07-31T00:07:24;3.05;;;1.52;;
45650;SDS011;31365;48.858;8.530;2023-07-31T00:09:52;6.82;;;1.80;;
45650;SDS011;31365;48.858;8.530;2023-07-31T00:12:21;3.50;;;1.55;;
45650;SDS011;31365;48.858;8.530;2023-07-31T00:14:50;6.28;;;1.90;;
45650;SDS011;31365;48.858;8.530;2023-07-31T00:17:18;2.25;;;1.20;;
45650;SDS011;31365;48.858;8.530;2023-07-31T00:19:46;3.83;;;1.67;;
45650;SDS011;31365;48.858;8.530;2023-07-31T00:22:18;2.35;;;1.60;;
45650;SDS011;31365;48.858;8.530;2023-07-31T00:24:46;4.65;;;1.67;;
45650;SDS011;31365;48.858;8.530;2023-07-31T00:27:14;3.67;;;1.45;;
45650;SDS011;31365;48.858;8.530;2023-07-31T00:29:42;2.20;;;1.35;;
45650;SDS011;31365;48.858;8.530;2023-07-31T00:32:11;4.30;;;1.67;;
45650;SDS011;31365;48.858;8.530;2023-07-31T00:34:39;1.50;;;1.30;;
45650;SDS011;31365;48.858;8.530;2023-07-31T00:37:07;3.13;;;1.48;;
45650;SDS011;31365;48.858;8.530;2023-07-31T00:39:37;2.78;;;1.60;;
45650;SDS011;31365;48.858;8.530;2023-07-31T00:42:05;3.92;;;1.85;;
45650;SDS011;31365;48.858;8.530;2023-07-31T00:44:34;4.20;;;1.70;;
45650;SDS011;31365;48.858;8.530;2023-07-31T00:47:03;2.88;;;1.30;;
45650;SDS011;31365;48.858;8.530;2023-07-31T00:49:31;2.75;;;1.55;;
45650;SDS011;31365;48.858;8.530;2023-07-31T00:52:00;2.70;;;1.73;;
45650;SDS011;31365;48.858;8.530;2023-07-31T00:54:29;3.50;;;1.42;;
45650;SDS011;31365;48.858;8.530;2023-07-31T00:57:00;4.35;;;1.70;;
45650;SDS011;31365;48.858;8.530;2023-07-31T00:59:29;4.70;;;1.88;;
45650;SDS011;31365;48.858;8.530;2023-07-31T01:01:57;3.75;;;1.50;;
45650;SDS011;31365;48.858;8.530;2023-07-31T01:04:26;4.10;;;1.90;;
45650;SDS011;31365;48.858;8.530;2023-07-31T01:06:56;3.42;;;1.30;;
45650;SDS011;31365;48.858;8.530;2023-07-31T01:09:38;3.75;;;1.60;;
45650;SDS011;31365;48.858;8.530;2023-07-31T01:12:16;3.53;;;1.50;;
45650;SDS011;31365;48.858;8.530;2023-07-31T01:14:51;3.53;;;1.80;;
45650;SDS011;31365;48.858;8.530;2023-07-31T01:17:29;6.90;;;1.85;;
45650;SDS011;31365;48.858;8.530;2023-07-31T01:20:01;4.07;;;1.50;;
45650;SDS011;31365;48.858;8.530;2023-07-31T01:22:40;3.43;;;1.50;;
45650;SDS011;31365;48.858;8.530;2023-07-31T01:25:56;4.27;;;2.13;;
45650;SDS011;31365;48.858;8.530;2023-07-31T01:28:33;3.67;;;1.58;;
45650;SDS011;31365;48.858;8.530;2023-07-31T01:31:14;3.23;;;1.50;;
45650;SDS011;31365;48.858;8.530;2023-07-31T01:33:50;2.57;;;1.53;;
45650;SDS011;31365;48.858;8.530;2023-07-31T01:36:23;6.00;;;1.97;;
45650;SDS011;31365;48.858;8.530;2023-07-31T01:38:52;3.17;;;1.87;;
45650;SDS011;31365;48.858;8.530;2023-07-31T01:41:27;2.83;;;1.65;;
45650;SDS011;31365;48.858;8.530;2023-07-31T01:43:55;2.43;;;1.13;;
45650;SDS011;31365;48.858;8.530;2023-07-31T01:46:24;4.93;;;1.77;;
45650;SDS011;31365;48.858;8.530;2023-07-31T01:49:06;3.43;;;1.63;;
45650;SDS011;31365;48.858;8.530;2023-07-31T01:51:34;3.30;;;1.77;;
45650;SDS011;31365;48.858;8.530;2023-07-31T01:54:02;2.93;;;1.70;;
45650;SDS011;31365;48.858;8.530;2023-07-31T01:56:33;3.03;;;1.83;;
45650;SDS011;31365;48.858;8.530;2023-07-31T01:59:01;2.93;;;1.50;;
45650;SDS011;31365;48.858;8.530;2023-07-31T02:01:30;4.33;;;1.67;;
45650;SDS011;31365;48.858;8.530;2023-07-31T02:03:58;5.32;;;1.92;;
45650;SDS011;31365;48.858;8.530;2023-07-31T02:06:27;2.95;;;1.38;;
45650;SDS011;31365;48.858;8.530;2023-07-31T02:08:55;3.47;;;2.13;;
45650;SDS011;31365;48.858;8.530;2023-07-31T02:11:24;4.20;;;1.50;;
45650;SDS011;31365;48.858;8.530;2023-07-31T02:13:53;2.47;;;1.60;;
45650;SDS011;31365;48.858;8.530;2023-07-31T02:16:21;2.43;;;1.60;;
45650;SDS011;31365;48.858;8.530;2023-07-31T02:18:50;3.90;;;1.88;;
45650;SDS011;31365;48.858;8.530;2023-07-31T02:21:18;2.73;;;1.77;;
45650;SDS011;31365;48.858;8.530;2023-07-31T02:23:46;3.03;;;1.70;;
45650;SDS011;31365;48.858;8.530;2023-07-31T02:26:14;2.63;;;1.50;;
45650;SDS011;31365;48.858;8.530;2023-07-31T02:28:43;3.40;;;1.23;;
45650;SDS011;31365;48.858;8.530;2023-07-31T02:31:13;4.00;;;1.70;;
45650;SDS011;31365;48.858;8.530;2023-07-31T02:33:41;3.17;;;1.77;;
45650;SDS011;31365;48.858;8.530;2023-07-31T02:36:10;3.78;;;1.75;;
45650;SDS011;31365;48.858;8.530;2023-07-31T02:38:38;4.03;;;1.90;;
45650;SDS011;31365;48.858;8.530;2023-07-31T02:41:06;5.72;;;1.83;;
45650;SDS011;31365;48.858;8.530;2023-07-31T02:43:35;2.90;;;1.60;;
45650;SDS011;31365;48.858;8.530;2023-07-31T02:46:03;5.43;;;1.63;;
45650;SDS011;31365;48.858;8.530;2023-07-31T02:48:33;2.30;;;1.50;;
45650;SDS011;31365;48.858;8.530;2023-07-31T02:51:02;3.73;;;2.00;;
45650;SDS011;31365;48.858;8.530;2023-07-31T02:53:30;3.30;;;1.98;;
45650;SDS011;31365;48.858;8.530;2023-07-31T02:55:58;5.00;;;1.83;;
45650;SDS011;31365;48.858;8.530;2023-07-31T02:58:27;4.37;;;1.70;;
45650;SDS011;31365;48.858;8.530;2023-07-31T03:00:55;2.47;;;1.50;;
45650;SDS011;31365;48.858;8.530;2023-07-31T03:03:26;3.40;;;1.75;;
45650;SDS011;31365;48.858;8.530;2023-07-31T03:05:56;8.30;;;1.80;;
45650;SDS011;31365;48.858;8.530;2023-07-31T03:08:25;1.88;;;1.40;;
45650;SDS011;31365;48.858;8.530;2023-07-31T03:10:53;4.57;;;1.70;;
45650;SDS011;31365;48.858;8.530;2023-07-31T03:13:22;3.15;;;1.92;;
45650;SDS011;31365;48.858;8.530;2023-07-31T03:15:50;3.73;;;1.80;;
45650;SDS011;31365;48.858;8.530;2023-07-31T03:18:19;2.60;;;1.48;;
45650;SDS011;31365;48.858;8.530;2023-07-31T03:20:47;4.82;;;1.85;;
45650;SDS011;31365;48.858;8.530;2023-07-31T03:23:17;4.47;;;1.83;;
45650;SDS011;31365;48.858;8.530;2023-07-31T03:25:55;4.63;;;2.20;;
45650;SDS011;31365;48.858;8.530;2023-07-31T03:28:28;3.67;;;1.87;;
45650;SDS011;31365;48.858;8.530;2023-07-31T03:30:57;5.70;;;1.83;;
45650;SDS011;31365;48.858;8.530;2023-07-31T03:33:26;3.97;;;1.48;;
45650;SDS011;31365;48.858;8.530;2023-07-31T03:35:55;4.43;;;2.00;;
45650;SDS011;31365;48.858;8.530;2023-07-31T03:38:25;2.28;;;1.42;;
45650;SDS011;31365;48.858;8.530;2023-07-31T03:40:53;2.97;;;2.20;;
45650;SDS011;31365;48.858;8.530;2023-07-31T03:43:22;2.00;;;1.67;;
45650;SDS011;31365;48.858;8.530;2023-07-31T03:45:51;3.90;;;1.77;;
45650;SDS011;31365;48.858;8.530;2023-07-31T03:48:20;4.03;;;2.10;;
45650;SDS011;31365;48.858;8.530;2023-07-31T03:50:48;3.97;;;1.37;;
45650;SDS011;31365;48.858;8.530;2023-07-31T03:53:17;2.73;;;1.63;;
45650;SDS011;31365;48.858;8.530;2023-07-31T03:55:46;3.73;;;1.80;;
45650;SDS011;31365;48.858;8.530;2023-07-31T03:58:14;4.90;;;2.03;;
45650;SDS011;31365;48.858;8.530;2023-07-31T04:00:42;3.30;;;1.80;;
45650;SDS011;31365;48.858;8.530;2023-07-31T04:03:11;5.40;;;1.77;;
45650;SDS011;31365;48.858;8.530;2023-07-31T04:05:39;2.80;;;1.45;;
45650;SDS011;31365;48.858;8.530;2023-07-31T04:08:07;3.93;;;1.67;;
45650;SDS011;31365;48.858;8.530;2023-07-31T04:10:35;3.92;;;2.10;;
45650;SDS011;31365;48.858;8.530;2023-07-31T04:13:05;4.63;;;2.00;;
45650;SDS011;31365;48.858;8.530;2023-07-31T04:15:33;5.40;;;2.00;;
45650;SDS011;31365;48.858;8.530;2023-07-31T04:18:01;2.95;;;1.95;;
45650;SDS011;31365;48.858;8.530;2023-07-31T04:20:30;4.80;;;2.35;;
45650;SDS011;31365;48.858;8.530;2023-07-31T04:22:59;3.50;;;1.90;;
45650;SDS011;31365;48.858;8.530;2023-07-31T04:25:27;5.70;;;2.03;;
45650;SDS011;31365;48.858;8.530;2023-07-31T04:27:56;4.70;;;1.83;;
45650;SDS011;31365;48.858;8.530;2023-07-31T04:30:25;4.50;;;2.00;;
45650;SDS011;31365;48.858;8.530;2023-07-31T04:32:53;4.60;;;2.20;;
45650;SDS011;31365;48.858;8.530;2023-07-31T04:35:21;3.00;;;2.03;;
45650;SDS011;31365;48.858;8.530;2023-07-31T04:37:50;3.23;;;1.90;;
45650;SDS011;31365;48.858;8.530;2023-07-31T04:40:18;3.95;;;2.00;;
45650;SDS011;31365;48.858;8.530;2023-07-31T04:42:46;4.20;;;1.88;;
45650;SDS011;31365;48.858;8.530;2023-07-31T04:45:14;5.80;;;1.97;;
45650;SDS011;31365;48.858;8.530;2023-07-31T04:47:44;3.37;;;2.17;;
45650;SDS011;31365;48.858;8.530;2023-07-31T04:50:12;3.72;;;2.42;;
45650;SDS011;31365;48.858;8.530;2023-07-31T04:52:40;5.20;;;2.30;;
45650;SDS011;31365;48.858;8.530;2023-07-31T04:55:08;5.63;;;2.13;;
45650;SDS011;31365;48.858;8.530;2023-07-31T04:57:36;4.03;;;2.30;;
45650;SDS011;31365;48.858;8.530;2023-07-31T05:00:05;2.67;;;1.93;;
45650;SDS011;31365;48.858;8.530;2023-07-31T05:02:35;5.83;;;1.90;;
45650;SDS011;31365;48.858;8.530;2023-07-31T05:05:04;5.03;;;2.10;;
45650;SDS011;31365;48.858;8.530;2023-07-31T05:07:33;5.60;;;2.60;;
45650;SDS011;31365;48.858;8.530;2023-07-31T05:10:01;6.07;;;2.15;;
45650;SDS011;31365;48.858;8.530;2023-07-31T05:12:30;3.20;;;1.70;;
45650;SDS011;31365;48.858;8.530;2023-07-31T05:14:58;3.27;;;1.93;;
45650;SDS011;31365;48.858;8.530;2023-07-31T05:17:26;2.77;;;1.63;;
45650;SDS011;31365;48.858;8.530;2023-07-31T05:19:54;3.72;;;1.98;;
45650;SDS011;31365;48.858;8.530;2023-07-31T05:22:24;3.00;;;1.98;;
45650;SDS011;31365;48.858;8.530;2023-07-31T05:24:52;5.20;;;2.00;;
45650;SDS011;31365;48.858;8.530;2023-07-31T05:27:21;4.65;;;2.42;;
45650;SDS011;31365;48.858;8.530;2023-07-31T05:29:49;7.93;;;2.40;;
45650;SDS011;31365;48.858;8.530;2023-07-31T05:32:18;6.43;;;2.28;;
45650;SDS011;31365;48.858;8.530;2023-07-31T05:34:46;4.67;;;2.10;;
45650;SDS011;31365;48.858;8.530;2023-07-31T05:37:14;4.95;;;1.88;;
45650;SDS011;31365;48.858;8.530;2023-07-31T05:39:44;4.15;;;2.00;;
45650;SDS011;31365;48.858;8.530;2023-07-31T05:42:12;3.88;;;2.05;;
45650;SDS011;31365;48.858;8.530;2023-07-31T05:44:40;6.15;;;2.53;;
45650;SDS011;31365;48.858;8.530;2023-07-31T05:47:09;3.15;;;2.00;;
45650;SDS011;31365;48.858;8.530;2023-07-31T05:49:37;3.60;;;2.20;;
45650;SDS011;31365;48.858;8.530;2023-07-31T05:52:05;2.92;;;2.17;;
45650;SDS011;31365;48.858;8.530;2023-07-31T05:54:34;3.97;;;1.90;;
45650;SDS011;31365;48.858;8.530;2023-07-31T05:57:04;4.03;;;1.98;;
45650;SDS011;31365;48.858;8.530;2023-07-31T05:59:33;6.53;;;2.22;;
45650;SDS011;31365;48.858;8.530;2023-07-31T06:02:02;5.05;;;1.92;;
45650;SDS011;31365;48.858;8.530;2023-07-31T06:04:30;2.90;;;1.90;;
45650;SDS011;31365;48.858;8.530;2023-07-31T06:06:59;3.22;;;1.95;;
45650;SDS011;31365;48.858;8.530;2023-07-31T06:09:28;3.30;;;1.63;;
45650;SDS011;31365;48.858;8.530;2023-07-31T06:11:56;5.40;;;2.42;;
45650;SDS011;31365;48.858;8.530;2023-07-31T06:14:26;4.05;;;2.35;;
45650;SDS011;31365;48.858;8.530;2023-07-31T06:16:54;4.75;;;2.42;;
45650;SDS011;31365;48.858;8.530;2023-07-31T06:19:22;4.57;;;2.33;;
45650;SDS011;31365;48.858;8.530;2023-07-31T06:21:51;4.38;;;2.03;;
45650;SDS011;31365;48.858;8.530;2023-07-31T06:24:19;3.70;;;1.73;;
45650;SDS011;31365;48.858;8.530;2023-07-31T06:26:48;4.43;;;2.00;;
45650;SDS011;31365;48.858;8.530;2023-07-31T06:29:17;4.15;;;2.47;;
45650;SDS011;31365;48.858;8.530;2023-07-31T06:31:46;3.30;;;2.20;;
45650;SDS011;31365;48.858;8.530;2023-07-31T06:34:15;3.42;;;2.28;;
45650;SDS011;31365;48.858;8.530;2023-07-31T06:36:43;3.22;;;2.05;;
45650;SDS011;31365;48.858;8.530;2023-07-31T06:39:11;5.32;;;2.55;;
45650;SDS011;31365;48.858;8.530;2023-07-31T06:41:39;4.30;;;2.42;;
45650;SDS011;31365;48.858;8.530;2023-07-31T06:44:10;4.55;;;2.40;;
45650;SDS011;31365;48.858;8.530;2023-07-31T06:46:38;5.25;;;2.30;;
45650;SDS011;31365;48.858;8.530;2023-07-31T06:49:08;5.32;;;2.50;;
45650;SDS011;31365;48.858;8.530;2023-07-31T06:51:36;4.63;;;2.33;;
45650;SDS011;31365;48.858;8.530;2023-07-31T06:54:05;6.25;;;2.42;;
45650;SDS011;31365;48.858;8.530;2023-07-31T06:56:33;3.42;;;2.03;;
45650;SDS011;31365;48.858;8.530;2023-07-31T06:59:04;4.40;;;2.33;;
45650;SDS011;31365;48.858;8.530;2023-07-31T07:01:32;5.43;;;2.78;;
45650;SDS011;31365;48.858;8.530;2023-07-31T07:04:00;5.38;;;2.25;;
45650;SDS011;31365;48.858;8.530;2023-07-31T07:06:30;6.97;;;3.00;;
45650;SDS011;31365;48.858;8.530;2023-07-31T07:08:59;5.40;;;2.30;;
45650;SDS011;31365;48.858;8.530;2023-07-31T07:11:27;5.70;;;2.45;;
45650;SDS011;31365;48.858;8.530;2023-07-31T07:13:55;3.72;;;2.20;;
45650;SDS011;31365;48.858;8.530;2023-07-31T07:16:23;3.42;;;2.28;;
45650;SDS011;31365;48.858;8.530;2023-07-31T07:18:52;3.83;;;2.60;;
45650;SDS011;31365;48.858;8.530;2023-07-31T07:21:31;5.50;;;2.35;;
45650;SDS011;31365;48.858;8.530;2023-07-31T07:24:00;6.78;;;2.50;;
45650;SDS011;31365;48.858;8.530;2023-07-31T07:26:28;4.50;;;2.70;;
45650;SDS011;31365;48.858;8.530;2023-07-31T07:28:57;4.15;;;2.17;;
45650;SDS011;31365;48.858;8.530;2023-07-31T07:31:27;3.92;;;2.22;;
45650;SDS011;31365;48.858;8.530;2023-07-31T07:33:56;2.72;;;1.80;;
45650;SDS011;31365;48.858;8.530;2023-07-31T07:36:24;4.47;;;2.28;;
45650;SDS011;31365;48.858;8.530;2023-07-31T07:38:56;6.60;;;2.70;;
45650;SDS011;31365;48.858;8.530;2023-07-31T07:41:24;3.55;;;2.35;;
45650;SDS011;31365;48.858;8.530;2023-07-31T07:43:52;6.00;;;2.38;;
45650;SDS011;31365;48.858;8.530;2023-07-31T07:46:21;6.05;;;2.60;;
45650;SDS011;31365;48.858;8.530;2023-07-31T07:48:49;3.08;;;2.28;;
45650;SDS011;31365;48.858;8.530;2023-07-31T07:51:17;5.00;;;2.58;;
45650;SDS011;31365;48.858;8.530;2023-07-31T07:53:45;3.63;;;2.20;;
45650;SDS011;31365;48.858;8.530;2023-07-31T07:56:15;4.95;;;2.50;;
45650;SDS011;31365;48.858;8.530;2023-07-31T07:58:43;6.32;;;2.95;;
45650;SDS011;31365;48.858;8.530;2023-07-31T08:01:11;4.50;;;2.45;;
45650;SDS011;31365;48.858;8.530;2023-07-31T08:03:39;2.97;;;2.35;;
45650;SDS011;31365;48.858;8.530;2023-07-31T08:06:08;4.07;;;2.17;;
45650;SDS011;31365;48.858;8.530;2023-07-31T08:08:36;6.40;;;2.35;;
45650;SDS011;31365;48.858;8.530;2023-07-31T08:11:05;4.53;;;2.60;;
45650;SDS011;31365;48.858;8.530;2023-07-31T08:13:35;5.55;;;2.65;;
45650;SDS011;31365;48.858;8.530;2023-07-31T08:16:04;6.15;;;2.40;;
45650;SDS011;31365;48.858;8.530;2023-07-31T08:18:32;4.80;;;2.25;;
45650;SDS011;31365;48.858;8.530;2023-07-31T08:21:01;4.20;;;2.25;;
45650;SDS011;31365;48.858;8.530;2023-07-31T08:23:30;4.28;;;2.33;;
45650;SDS011;31365;48.858;8.530;2023-07-31T08:25:58;11.82;;;4.13;;
45650;SDS011;31365;48.858;8.530;2023-07-31T08:28:26;3.70;;;2.53;;
45650;SDS011;31365;48.858;8.530;2023-07-31T08:30:56;5.53;;;2.95;;
45650;SDS011;31365;48.858;8.530;2023-07-31T08:33:24;5.53;;;2.90;;
45650;SDS011;31365;48.858;8.530;2023-07-31T08:35:53;4.82;;;2.75;;
45650;SDS011;31365;48.858;8.530;2023-07-31T08:38:21;4.28;;;2.30;;
45650;SDS011;31365;48.858;8.530;2023-07-31T08:40:51;3.88;;;2.78;;
45650;SDS011;31365;48.858;8.530;2023-07-31T08:43:20;5.15;;;2.78;;
45650;SDS011;31365;48.858;8.530;2023-07-31T08:45:53;3.53;;;2.58;;
45650;SDS011;31365;48.858;8.530;2023-07-31T08:48:23;5.10;;;2.28;;
45650;SDS011;31365;48.858;8.530;2023-07-31T08:50:52;4.40;;;2.95;;
45650;SDS011;31365;48.858;8.530;2023-07-31T08:53:21;4.00;;;2.17;;
45650;SDS011;31365;48.858;8.530;2023-07-31T08:55:49;4.05;;;2.33;;
45650;SDS011;31365;48.858;8.530;2023-07-31T08:58:20;6.25;;;2.65;;
45650;SDS011;31365;48.858;8.530;2023-07-31T09:00:51;3.33;;;2.55;;
45650;SDS011;31365;48.858;8.530;2023-07-31T09:03:24;3.13;;;2.05;;
45650;SDS011;31365;48.858;8.530;2023-07-31T09:05:56;4.07;;;2.30;;
45650;SDS011;31365;48.858;8.530;2023-07-31T09:08:26;7.82;;;2.38;;
45650;SDS011;31365;48.858;8.530;2023-07-31T09:10:59;5.47;;;2.35;;
45650;SDS011;31365;48.858;8.530;2023-07-31T09:13:30;5.10;;;2.60;;
45650;SDS011;31365;48.858;8.530;2023-07-31T09:15:59;5.05;;;2.22;;
45650;SDS011;31365;48.858;8.530;2023-07-31T09:18:29;3.38;;;2.10;;
45650;SDS011;31365;48.858;8.530;2023-07-31T09:21:01;4.95;;;3.08;;
45650;SDS011;31365;48.858;8.530;2023-07-31T09:23:40;4.95;;;2.85;;
45650;SDS011;31365;48.858;8.530;2023-07-31T09:26:09;4.72;;;2.45;;
45650;SDS011;31365;48.858;8.530;2023-07-31T09:28:38;5.68;;;3.00;;
45650;SDS011;31365;48.858;8.530;2023-07-31T09:31:06;6.38;;;2.60;;
45650;SDS011;31365;48.858;8.530;2023-07-31T09:33:36;4.72;;;2.40;;
45650;SDS011;31365;48.858;8.530;2023-07-31T09:36:22;5.53;;;2.42;;
45650;SDS011;31365;48.858;8.530;2023-07-31T09:38:50;7.00;;;2.80;;
45650;SDS011;31365;48.858;8.530;2023-07-31T09:41:19;3.17;;;2.28;;
45650;SDS011;31365;48.858;8.530;2023-07-31T09:43:52;6.80;;;2.58;;
45650;SDS011;31365;48.858;8.530;2023-07-31T09:46:21;3.55;;;2.53;;
45650;SDS011;31365;48.858;8.530;2023-07-31T09:48:51;3.58;;;2.33;;
45650;SDS011;31365;48.858;8.530;2023-07-31T09:51:25;4.10;;;2.78;;
45650;SDS011;31365;48.858;8.530;2023-07-31T09:53:54;4.15;;;2.55;;
45650;SDS011;31365;48.858;8.530;2023-07-31T09:56:22;8.07;;;2.85;;
45650;SDS011;31365;48.858;8.530;2023-07-31T09:58:52;5.70;;;2.67;;
45650;SDS011;31365;48.858;8.530;2023-07-31T10:01:23;4.78;;;2.75;;
45650;SDS011;31365;48.858;8.530;2023-07-31T10:03:52;4.63;;;2.65;;
45650;SDS011;31365;48.858;8.530;2023-07-31T10:06:20;3.22;;;2.47;;
45650;SDS011;31365;48.858;8.530;2023-07-31T10:08:49;5.43;;;2.88;;
45650;SDS011;31365;48.858;8.530;2023-07-31T10:11:21;5.35;;;2.72;;
45650;SDS011;31365;48.858;8.530;2023-07-31T10:13:53;4.70;;;2.75;;
45650;SDS011;31365;48.858;8.530;2023-07-31T10:16:23;3.75;;;2.42;;
45650;SDS011;31365;48.858;8.530;2023-07-31T10:18:53;3.75;;;2.47;;
45650;SDS011;31365;48.858;8.530;2023-07-31T10:21:22;4.80;;;2.45;;
45650;SDS011;31365;48.858;8.530;2023-07-31T10:23:50;5.57;;;3.17;;
45650;SDS011;31365;48.858;8.530;2023-07-31T10:26:18;3.55;;;2.17;;
45650;SDS011;31365;48.858;8.530;2023-07-31T10:28:50;4.07;;;2.78;;
45650;SDS011;31365;48.858;8.530;2023-07-31T10:31:21;14.38;;;2.67;;
45650;SDS011;31365;48.858;8.530;2023-07-31T10:33:52;5.53;;;2.83;;
45650;SDS011;31365;48.858;8.530;2023-07-31T10:36:23;4.57;;;2.80;;
45650;SDS011;31365;48.858;8.530;2023-07-31T10:38:51;4.50;;;2.25;;
45650;SDS011;31365;48.858;8.530;2023-07-31T10:41:20;5.38;;;2.42;;
45650;SDS011;31365;48.858;8.530;2023-07-31T10:43:59;4.40;;;2.38;;
45650;SDS011;31365;48.858;8.530;2023-07-31T10:46:29;4.18;;;2.45;;
45650;SDS011;31365;48.858;8.530;2023-07-31T10:48:58;5.20;;;2.97;;
45650;SDS011;31365;48.858;8.530;2023-07-31T10:51:32;7.43;;;2.63;;
45650;SDS011;31365;48.858;8.530;2023-07-31T10:54:11;5.10;;;2.30;;
45650;SDS011;31365;48.858;8.530;2023-07-31T10:56:44;5.82;;;2.60;;
45650;SDS011;31365;48.858;8.530;2023-07-31T10:59:13;4.70;;;2.60;;
45650;SDS011;31365;48.858;8.530;2023-07-31T11:01:49;4.03;;;2.80;;
45650;SDS011;31365;48.858;8.530;2023-07-31T11:04:23;7.15;;;2.83;;
45650;SDS011;31365;48.858;8.530;2023-07-31T11:06:57;2.35;;;2.13;;
45650;SDS011;31365;48.858;8.530;2023-07-31T11:09:27;4.30;;;2.70;;
45650;SDS011;31365;48.858;8.530;2023-07-31T11:11:58;5.60;;;2.80;;
45650;SDS011;31365;48.858;8.530;2023-07-31T11:14:28;4.80;;;3.03;;
45650;SDS011;31365;48.858;8.530;2023-07-31T11:16:56;4.03;;;2.60;;
45650;SDS011;31365;48.858;8.530;2023-07-31T11:19:25;6.35;;;2.72;;
45650;SDS011;31365;48.858;8.530;2023-07-31T11:21:54;2.92;;;2.30;;
45650;SDS011;31365;48.858;8.530;2023-07-31T11:24:23;4.95;;;2.80;;
45650;SDS011;31365;48.858;8.530;2023-07-31T11:26:52;2.80;;;2.30;;
45650;SDS011;31365;48.858;8.530;2023-07-31T11:29:20;6.47;;;2.70;;
45650;SDS011;31365;48.858;8.530;2023-07-31T11:31:55;3.28;;;2.20;;
45650;SDS011;31365;48.858;8.530;2023-07-31T11:34:23;4.07;;;2.60;;
45650;SDS011;31365;48.858;8.530;2023-07-31T11:36:55;4.85;;;2.28;;
45650;SDS011;31365;48.858;8.530;2023-07-31T11:39:24;5.05;;;2.42;;
45650;SDS011;31365;48.858;8.530;2023-07-31T11:41:58;5.00;;;2.88;;
45650;SDS011;31365;48.858;8.530;2023-07-31T11:44:26;4.35;;;2.53;;
45650;SDS011;31365;48.858;8.530;2023-07-31T11:47:06;4.35;;;2.45;;
45650;SDS011;31365;48.858;8.530;2023-07-31T11:49:36;6.68;;;2.83;;
45650;SDS011;31365;48.858;8.530;2023-07-31T11:52:06;3.25;;;2.42;;
45650;SDS011;31365;48.858;8.530;2023-07-31T11:54:35;6.00;;;2.42;;
45650;SDS011;31365;48.858;8.530;2023-07-31T11:57:03;2.53;;;2.28;;
45650;SDS011;31365;48.858;8.530;2023-07-31T11:59:33;3.80;;;2.10;;
45650;SDS011;31365;48.858;8.530;2023-07-31T12:02:02;4.20;;;2.95;;
45650;SDS011;31365;48.858;8.530;2023-07-31T12:04:31;2.80;;;2.20;;
45650;SDS011;31365;48.858;8.530;2023-07-31T12:07:00;7.95;;;2.60;;
45650;SDS011;31365;48.858;8.530;2023-07-31T12:09:29;4.95;;;2.58;;
45650;SDS011;31365;48.858;8.530;2023-07-31T12:11:57;4.15;;;2.38;;
45650;SDS011;31365;48.858;8.530;2023-07-31T12:14:26;3.60;;;2.38;;
45650;SDS011;31365;48.858;8.530;2023-07-31T12:16:56;3.83;;;2.55;;
45650;SDS011;31365;48.858;8.530;2023-07-31T12:19:27;3.08;;;2.55;;
45650;SDS011;31365;48.858;8.530;2023-07-31T12:21:56;5.60;;;2.25;;
45650;SDS011;31365;48.858;8.530;2023-07-31T12:24:27;8.15;;;2.42;;
45650;SDS011;31365;48.858;8.530;2023-07-31T12:26:56;3.15;;;2.17;;
45650;SDS011;31365;48.858;8.530;2023-07-31T12:29:33;4.05;;;2.20;;
45650;SDS011;31365;48.858;8.530;2023-07-31T12:32:18;3.10;;;2.33;;
45650;SDS011;31365;48.858;8.530;2023-07-31T12:34:48;3.10;;;2.20;;
45650;SDS011;31365;48.858;8.530;2023-07-31T12:37:17;2.63;;;2.33;;
45650;SDS011;31365;48.858;8.530;2023-07-31T12:39:45;3.42;;;2.17;;
45650;SDS011;31365;48.858;8.530;2023-07-31T12:42:16;2.97;;;1.83;;
45650;SDS011;31365;48.858;8.530;2023-07-31T12:44:45;3.60;;;2.08;;
45650;SDS011;31365;48.858;8.530;2023-07-31T12:47:13;3.30;;;2.60;;
45650;SDS011;31365;48.858;8.530;2023-07-31T12:49:41;3.92;;;2.30;;
45650;SDS011;31365;48.858;8.530;2023-07-31T12:52:09;3.20;;;2.13;;
45650;SDS011;31365;48.858;8.530;2023-07-31T12:54:37;5.18;;;2.72;;
45650;SDS011;31365;48.858;8.530;2023-07-31T12:57:05;3.72;;;2.85;;
45650;SDS011;31365;48.858;8.530;2023-07-31T12:59:35;2.55;;;2.13;;
45650;SDS011;31365;48.858;8.530;2023-07-31T13:02:04;4.32;;;2.42;;
45650;SDS011;31365;48.858;8.530;2023-07-31T13:04:33;4.05;;;2.40;;
45650;SDS011;31365;48.858;8.530;2023-07-31T13:07:01;4.07;;;2.17;;
45650;SDS011;31365;48.858;8.530;2023-07-31T13:09:29;2.92;;;2.22;;
45650;SDS011;31365;48.858;8.530;2023-07-31T13:11:57;5.07;;;2.67;;
45650;SDS011;31365;48.858;8.530;2023-07-31T13:14:26;2.80;;;2.20;;
45650;SDS011;31365;48.858;8.530;2023-07-31T13:16:56;4.40;;;2.42;;
45650;SDS011;31365;48.858;8.530;2023-07-31T13:19:25;3.35;;;2.20;;
45650;SDS011;31365;48.858;8.530;2023-07-31T13:21:53;4.13;;;2.40;;
45650;SDS011;31365;48.858;8.530;2023-07-31T13:24:21;4.47;;;2.65;;
45650;SDS011;31365;48.858;8.530;2023-07-31T13:26:49;4.28;;;2.63;;
45650;SDS011;31365;48.858;8.530;2023-07-31T13:29:18;3.33;;;2.33;;
45650;SDS011;31365;48.858;8.530;2023-07-31T13:31:48;4.05;;;2.22;;
45650;SDS011;31365;48.858;8.530;2023-07-31T13:34:17;2.90;;;2.15;;
45650;SDS011;31365;48.858;8.530;2023-07-31T13:36:45;3.97;;;2.50;;
45650;SDS011;31365;48.858;8.530;2023-07-31T13:39:14;4.18;;;2.63;;
45650;SDS011;31365;48.858;8.530;2023-07-31T13:41:42;3.58;;;2.20;;
45650;SDS011;31365;48.858;8.530;2023-07-31T13:44:10;3.75;;;2.30;;
45650;SDS011;31365;48.858;8.530;2023-07-31T13:46:38;3.83;;;2.67;;
45650;SDS011;31365;48.858;8.530;2023-07-31T13:49:07;4.00;;;2.72;;
45650;SDS011;31365;48.858;8.530;2023-07-31T13:51:36;4.85;;;2.15;;
45650;SDS011;31365;48.858;8.530;2023-07-31T13:54:06;3.88;;;2.40;;
45650;SDS011;31365;48.858;8.530;2023-07-31T13:56:34;2.72;;;2.40;;
45650;SDS011;31365;48.858;8.530;2023-07-31T13:59:02;5.13;;;2.70;;
45650;SDS011;31365;48.858;8.530;2023-07-31T14:01:30;3.70;;;2.17;;
45650;SDS011;31365;48.858;8.530;2023-07-31T14:03:59;3.08;;;2.22;;
45650;SDS011;31365;48.858;8.530;2023-07-31T14:06:27;3.63;;;2.22;;
45650;SDS011;31365;48.858;8.530;2023-07-31T14:08:56;5.05;;;2.40;;
45650;SDS011;31365;48.858;8.530;2023-07-31T14:11:24;4.88;;;2.17;;
45650;SDS011;31365;48.858;8.530;2023-07-31T14:13:53;3.75;;;2.50;;
45650;SDS011;31365;48.858;8.530;2023-07-31T14:16:23;2.78;;;2.25;;
45650;SDS011;31365;48.858;8.530;2023-07-31T14:18:51;2.88;;;2.20;;
45650;SDS011;31365;48.858;8.530;2023-07-31T14:21:20;3.63;;;2.40;;
45650;SDS011;31365;48.858;8.530;2023-07-31T14:23:48;3.88;;;2.60;;
45650;SDS011;31365;48.858;8.530;2023-07-31T14:26:18;2.33;;;1.95;;
45650;SDS011;31365;48.858;8.530;2023-07-31T14:28:46;5.03;;;2.70;;
45650;SDS011;31365;48.858;8.530;2023-07-31T14:31:15;2.35;;;1.90;;
45650;SDS011;31365;48.858;8.530;2023-07-31T14:33:43;3.88;;;2.00;;
45650;SDS011;31365;48.858;8.530;2023-07-31T14:36:11;4.80;;;2.40;;
45650;SDS011;31365;48.858;8.530;2023-07-31T14:38:39;8.57;;;2.78;;
45650;SDS011;31365;48.858;8.530;2023-07-31T14:41:08;5.82;;;2.67;;
45650;SDS011;31365;48.858;8.530;2023-07-31T14:43:37;4.07;;;2.63;;
45650;SDS011;31365;48.858;8.530;2023-07-31T14:46:05;2.90;;;2.10;;
45650;SDS011;31365;48.858;8.530;2023-07-31T14:48:34;4.22;;;2.65;;
45650;SDS011;31365;48.858;8.530;2023-07-31T14:51:02;3.42;;;2.50;;
45650;SDS011;31365;48.858;8.530;2023-07-31T14:53:30;3.17;;;2.22;;
45650;SDS011;31365;48.858;8.530;2023-07-31T14:55:59;4.07;;;2.42;;
45650;SDS011;31365;48.858;8.530;2023-07-31T14:58:27;3.63;;;2.50;;
45650;SDS011;31365;48.858;8.530;2023-07-31T15:00:57;4.53;;;2.83;;
45650;SDS011;31365;48.858;8.530;2023-07-31T15:03:25;3.70;;;2.30;;